Terminal Aerodrome Forecast
Issued by NWS

Home | Current Version | Previous Version | Text Only | Print | Product List | Glossary On
Versions: 1 2 3 4 5 6 7 8 9 10 11 12 13 14 15 16 17 18
954
FTUS45 KTFX 241804 AAA
TAFBZN
TAF AMD
KBZN 241804Z 2418/2518 VRB03KT 4SM -SHSN BR OVC050
      TEMPO 2418/2421 2SM -SHSN BKN010 OVC030
     FM250600 VRB03KT 4SM BR OVC050 PROB30 2506/2509 4SM -SN OVC050
     FM250900 VRB03KT P6SM OVC050 PROB30 2509/2512 5SM -SN OVC050
     FM251200 VRB04KT 2SM BR BKN030 OVC050
     FM251500 VRB04KT 3SM BR OVC030=

USA.gov is the U.S. government's official web portal to all federal, state and local government web resources and services.